sensor_id;sensor_type;location;lat;lon;timestamp;pressure;altitude;pressure_sealevel;temperature;humidity
75192;BME280;63771;52.580;9.734;2023-03-03T00:00:17;102130.22;;;0.24;92.33
75192;BME280;63771;52.580;9.734;2023-03-03T00:02:42;102133.41;;;0.23;92.56
75192;BME280;63771;52.580;9.734;2023-03-03T00:05:08;102138.44;;;0.23;92.73
75192;BME280;63771;52.580;9.734;2023-03-03T00:07:33;102140.47;;;0.20;93.23
75192;BME280;63771;52.580;9.734;2023-03-03T00:09:58;102130.91;;;0.23;93.05
75192;BME280;63771;52.580;9.734;2023-03-03T00:12:28;102124.50;;;0.25;92.66
75192;BME280;63771;52.580;9.734;2023-03-03T00:14:54;102131.84;;;0.18;93.11
75192;BME280;63771;52.580;9.734;2023-03-03T00:17:27;102126.81;;;0.18;93.25
75192;BME280;63771;52.580;9.734;2023-03-03T00:19:53;102124.97;;;0.28;93.10
75192;BME280;63771;52.580;9.734;2023-03-03T00:22:28;102137.03;;;0.25;93.06
75192;BME280;63771;52.580;9.734;2023-03-03T00:25:20;102139.56;;;0.25;93.18
75192;BME280;63771;52.580;9.734;2023-03-03T00:27:48;102140.72;;;0.21;93.62
75192;BME280;63771;52.580;9.734;2023-03-03T00:30:23;102128.59;;;0.24;93.44
75192;BME280;63771;52.580;9.734;2023-03-03T00:32:50;102130.44;;;0.20;93.64
75192;BME280;63771;52.580;9.734;2023-03-03T00:35:26;102128.63;;;0.19;93.85
75192;BME280;63771;52.580;9.734;2023-03-03T00:37:55;102115.88;;;0.17;94.00
75192;BME280;63771;52.580;9.734;2023-03-03T00:40:23;102127.03;;;0.19;93.88
75192;BME280;63771;52.580;9.734;2023-03-03T00:42:52;102120.88;;;0.23;93.73
75192;BME280;63771;52.580;9.734;2023-03-03T00:47:56;102122.69;;;0.24;94.09
75192;BME280;63771;52.580;9.734;2023-03-03T00:53:09;102111.50;;;0.28;93.85
75192;BME280;63771;52.580;9.734;2023-03-03T00:55:34;102103.97;;;0.28;93.83
75192;BME280;63771;52.580;9.734;2023-03-03T00:58:00;102116.28;;;0.32;93.90
75192;BME280;63771;52.580;9.734;2023-03-03T01:00:26;102121.72;;;0.35;93.64
75192;BME280;63771;52.580;9.734;2023-03-03T01:02:51;102126.94;;;0.36;93.51
75192;BME280;63771;52.580;9.734;2023-03-03T01:05:18;102133.13;;;0.38;93.45
75192;BME280;63771;52.580;9.734;2023-03-03T01:07:44;102139.75;;;0.38;93.43
75192;BME280;63771;52.580;9.734;2023-03-03T01:10:10;102128.34;;;0.34;93.63
75192;BME280;63771;52.580;9.734;2023-03-03T01:12:36;102124.72;;;0.32;93.88
75192;BME280;63771;52.580;9.734;2023-03-03T01:15:06;102127.22;;;0.32;93.96
75192;BME280;63771;52.580;9.734;2023-03-03T01:17:32;102121.97;;;0.31;94.09
75192;BME280;63771;52.580;9.734;2023-03-03T01:19:59;102131.72;;;0.40;93.84
75192;BME280;63771;52.580;9.734;2023-03-03T01:22:24;102136.69;;;0.51;93.39
75192;BME280;63771;52.580;9.734;2023-03-03T01:24:49;102135.56;;;0.49;93.08
75192;BME280;63771;52.580;9.734;2023-03-03T01:27:15;102142.00;;;0.47;93.39
75192;BME280;63771;52.580;9.734;2023-03-03T01:29:40;102134.50;;;0.31;93.43
75192;BME280;63771;52.580;9.734;2023-03-03T01:32:05;102137.25;;;0.32;93.75
75192;BME280;63771;52.580;9.734;2023-03-03T01:34:31;102142.72;;;0.35;93.68
75192;BME280;63771;52.580;9.734;2023-03-03T01:36:56;102139.53;;;0.31;93.97
75192;BME280;63771;52.580;9.734;2023-03-03T01:39:21;102130.66;;;0.27;93.72
75192;BME280;63771;52.580;9.734;2023-03-03T01:41:47;102121.75;;;0.29;94.13
75192;BME280;63771;52.580;9.734;2023-03-03T01:44:15;102129.06;;;0.28;94.29
75192;BME280;63771;52.580;9.734;2023-03-03T01:49:23;102138.16;;;0.33;94.08
75192;BME280;63771;52.580;9.734;2023-03-03T01:51:58;102119.44;;;0.31;94.01
75192;BME280;63771;52.580;9.734;2023-03-03T01:54:29;102113.31;;;0.29;94.30
75192;BME280;63771;52.580;9.734;2023-03-03T01:56:58;102110.34;;;0.25;94.39
75192;BME280;63771;52.580;9.734;2023-03-03T01:59:30;102116.03;;;0.30;94.38
75192;BME280;63771;52.580;9.734;2023-03-03T02:01:58;102117.84;;;0.31;94.45
75192;BME280;63771;52.580;9.734;2023-03-03T02:04:25;102113.06;;;0.33;94.32
75192;BME280;63771;52.580;9.734;2023-03-03T02:06:57;102121.28;;;0.37;94.00
75192;BME280;63771;52.580;9.734;2023-03-03T02:09:45;102105.72;;;0.40;93.96
75192;BME280;63771;52.580;9.734;2023-03-03T02:12:16;102104.81;;;0.39;94.06
75192;BME280;63771;52.580;9.734;2023-03-03T02:14:42;102101.63;;;0.40;93.77
75192;BME280;63771;52.580;9.734;2023-03-03T02:17:07;102094.31;;;0.42;93.79
75192;BME280;63771;52.580;9.734;2023-03-03T02:21:59;102086.31;;;0.44;93.74
75192;BME280;63771;52.580;9.734;2023-03-03T02:24:38;102080.19;;;0.42;93.57
75192;BME280;63771;52.580;9.734;2023-03-03T02:27:06;102060.59;;;0.34;93.65
75192;BME280;63771;52.580;9.734;2023-03-03T02:29:35;102071.94;;;0.43;93.50
75192;BME280;63771;52.580;9.734;2023-03-03T02:32:01;102079.00;;;0.46;93.37
75192;BME280;63771;52.580;9.734;2023-03-03T02:34:26;102072.38;;;0.46;93.59
75192;BME280;63771;52.580;9.734;2023-03-03T02:36:51;102083.31;;;0.47;93.19
75192;BME280;63771;52.580;9.734;2023-03-03T02:39:22;102075.13;;;0.48;93.34
75192;BME280;63771;52.580;9.734;2023-03-03T02:44:24;102081.25;;;0.50;93.26
75192;BME280;63771;52.580;9.734;2023-03-03T02:46:52;102066.88;;;0.49;93.20
75192;BME280;63771;52.580;9.734;2023-03-03T02:49:21;102071.00;;;0.48;93.13
75192;BME280;63771;52.580;9.734;2023-03-03T02:51:47;102071.91;;;0.49;93.00
75192;BME280;63771;52.580;9.734;2023-03-03T02:54:13;102086.47;;;0.51;93.13
75192;BME280;63771;52.580;9.734;2023-03-03T02:56:38;102079.41;;;0.55;92.11
75192;BME280;63771;52.580;9.734;2023-03-03T02:59:05;102091.47;;;0.57;91.90
75192;BME280;63771;52.580;9.734;2023-03-03T03:01:31;102087.16;;;0.56;91.82
75192;BME280;63771;52.580;9.734;2023-03-03T03:04:04;102085.03;;;0.65;90.75
75192;BME280;63771;52.580;9.734;2023-03-03T03:06:30;102080.97;;;0.60;90.89
75192;BME280;63771;52.580;9.734;2023-03-03T03:08:55;102090.09;;;0.59;91.22
75192;BME280;63771;52.580;9.734;2023-03-03T03:11:21;102094.22;;;0.59;91.10
75192;BME280;63771;52.580;9.734;2023-03-03T03:13:46;102094.59;;;0.67;90.49
75192;BME280;63771;52.580;9.734;2023-03-03T03:16:11;102085.91;;;0.71;89.83
75192;BME280;63771;52.580;9.734;2023-03-03T03:18:36;102076.16;;;0.61;90.02
75192;BME280;63771;52.580;9.734;2023-03-03T03:21:10;102083.94;;;0.57;90.31
75192;BME280;63771;52.580;9.734;2023-03-03T03:23:35;102085.53;;;0.57;90.55
75192;BME280;63771;52.580;9.734;2023-03-03T03:26:01;102081.66;;;0.59;90.33
75192;BME280;63771;52.580;9.734;2023-03-03T03:28:27;102084.88;;;0.58;90.29
75192;BME280;63771;52.580;9.734;2023-03-03T03:30:52;102084.63;;;0.56;90.53
75192;BME280;63771;52.580;9.734;2023-03-03T03:33:17;102084.88;;;0.58;90.60
75192;BME280;63771;52.580;9.734;2023-03-03T03:35:42;102083.47;;;0.60;90.36
75192;BME280;63771;52.580;9.734;2023-03-03T03:38:12;102089.91;;;0.58;89.95
75192;BME280;63771;52.580;9.734;2023-03-03T03:40:38;102097.84;;;0.61;90.14
75192;BME280;63771;52.580;9.734;2023-03-03T03:43:03;102090.25;;;0.72;89.75
75192;BME280;63771;52.580;9.734;2023-03-03T03:45:28;102097.59;;;0.65;90.00
75192;BME280;63771;52.580;9.734;2023-03-03T03:47:54;102101.06;;;0.60;90.27
75192;BME280;63771;52.580;9.734;2023-03-03T03:50:19;102100.41;;;0.55;90.62
75192;BME280;63771;52.580;9.734;2023-03-03T03:52:45;102109.75;;;0.56;90.73
75192;BME280;63771;52.580;9.734;2023-03-03T03:55:11;102102.44;;;0.52;90.81
75192;BME280;63771;52.580;9.734;2023-03-03T03:57:36;102104.75;;;0.50;91.00
75192;BME280;63771;52.580;9.734;2023-03-03T04:00:03;102107.94;;;0.55;90.91
75192;BME280;63771;52.580;9.734;2023-03-03T04:02:29;102106.13;;;0.54;90.61
75192;BME280;63771;52.580;9.734;2023-03-03T04:04:54;102111.56;;;0.57;90.76
75192;BME280;63771;52.580;9.734;2023-03-03T04:07:19;102115.66;;;0.57;90.56
75192;BME280;63771;52.580;9.734;2023-03-03T04:09:46;102112.91;;;0.61;90.20
75192;BME280;63771;52.580;9.734;2023-03-03T04:12:11;102113.19;;;0.51;90.49
75192;BME280;63771;52.580;9.734;2023-03-03T04:14:37;102115.41;;;0.61;90.40
75192;BME280;63771;52.580;9.734;2023-03-03T04:17:02;102107.88;;;0.61;90.16
75192;BME280;63771;52.580;9.734;2023-03-03T04:19:27;102107.47;;;0.58;90.73
75192;BME280;63771;52.580;9.734;2023-03-03T04:21:53;102108.63;;;0.54;90.77
75192;BME280;63771;52.580;9.734;2023-03-03T04:24:18;102105.91;;;0.52;91.02
75192;BME280;63771;52.580;9.734;2023-03-03T04:26:44;102106.13;;;0.54;90.82
75192;BME280;63771;52.580;9.734;2023-03-03T04:29:09;102114.97;;;0.63;90.67
75192;BME280;63771;52.580;9.734;2023-03-03T04:31:34;102114.31;;;0.59;90.46
75192;BME280;63771;52.580;9.734;2023-03-03T04:33:59;102122.72;;;0.65;90.51
75192;BME280;63771;52.580;9.734;2023-03-03T04:36:25;102116.81;;;0.59;90.70
75192;BME280;63771;52.580;9.734;2023-03-03T04:38:50;102118.63;;;0.60;90.79
75192;BME280;63771;52.580;9.734;2023-03-03T04:41:16;102120.69;;;0.57;90.85
75192;BME280;63771;52.580;9.734;2023-03-03T04:43:41;102120.69;;;0.57;91.05
75192;BME280;63771;52.580;9.734;2023-03-03T04:46:07;102125.25;;;0.59;90.98
75192;BME280;63771;52.580;9.734;2023-03-03T04:48:32;102121.59;;;0.63;90.56
75192;BME280;63771;52.580;9.734;2023-03-03T04:50:58;102111.78;;;0.59;90.56
75192;BME280;63771;52.580;9.734;2023-03-03T04:53:23;102117.03;;;0.60;90.57
75192;BME280;63771;52.580;9.734;2023-03-03T04:55:52;102115.22;;;0.59;90.51
75192;BME280;63771;52.580;9.734;2023-03-03T04:58:19;102111.13;;;0.54;90.59
75192;BME280;63771;52.580;9.734;2023-03-03T05:00:55;102109.31;;;0.53;90.61
75192;BME280;63771;52.580;9.734;2023-03-03T05:03:21;102112.75;;;0.54;90.60
75192;BME280;63771;52.580;9.734;2023-03-03T05:05:46;102106.13;;;0.54;90.81
75192;BME280;63771;52.580;9.734;2023-03-03T05:08:12;102096.97;;;0.55;90.57
75192;BME280;63771;52.580;9.734;2023-03-03T05:10:38;102097.44;;;0.58;90.61
75192;BME280;63771;52.580;9.734;2023-03-03T05:13:04;102090.81;;;0.58;90.26
75192;BME280;63771;52.580;9.734;2023-03-03T05:15:30;102080.28;;;0.61;90.15
75192;BME280;63771;52.580;9.734;2023-03-03T05:17:56;102075.94;;;0.60;90.37
75192;BME280;63771;52.580;9.734;2023-03-03T05:20:23;102077.75;;;0.61;90.42
75192;BME280;63771;52.580;9.734;2023-03-03T05:22:49;102065.69;;;0.58;90.26
75192;BME280;63771;52.580;9.734;2023-03-03T05:25:14;102078.47;;;0.60;90.51
75192;BME280;63771;52.580;9.734;2023-03-03T05:27:39;102079.41;;;0.55;90.71
75192;BME280;63771;52.580;9.734;2023-03-03T05:30:05;102085.34;;;0.55;90.55
75192;BME280;63771;52.580;9.734;2023-03-03T05:32:31;102084.44;;;0.55;90.46
75192;BME280;63771;52.580;9.734;2023-03-03T05:34:56;102086.94;;;0.55;90.57
75192;BME280;63771;52.580;9.734;2023-03-03T05:37:22;102077.59;;;0.54;90.75
75192;BME280;63771;52.580;9.734;2023-03-03T05:39:48;102090.84;;;0.52;90.67
75192;BME280;63771;52.580;9.734;2023-03-03T05:42:14;102080.81;;;0.52;90.67
75192;BME280;63771;52.580;9.734;2023-03-03T05:44:40;102074.59;;;0.56;90.74
75192;BME280;63771;52.580;9.734;2023-03-03T05:47:05;102073.22;;;0.58;90.49
75192;BME280;63771;52.580;9.734;2023-03-03T05:49:30;102083.72;;;0.56;90.64
75192;BME280;63771;52.580;9.734;2023-03-03T05:51:56;102085.81;;;0.52;90.54
75192;BME280;63771;52.580;9.734;2023-03-03T05:54:21;102093.81;;;0.50;90.23
75192;BME280;63771;52.580;9.734;2023-03-03T05:56:47;102093.59;;;0.48;90.59
75192;BME280;63771;52.580;9.734;2023-03-03T06:02:27;102120.50;;;0.49;90.44
75192;BME280;63771;52.580;9.734;2023-03-03T06:04:53;102120.31;;;0.48;90.31
75192;BME280;63771;52.580;9.734;2023-03-03T06:07:18;102131.47;;;0.50;90.53
75192;BME280;63771;52.580;9.734;2023-03-03T06:09:43;102131.47;;;0.50;90.80
75192;BME280;63771;52.580;9.734;2023-03-03T06:12:09;102134.47;;;0.47;90.91
75192;BME280;63771;52.580;9.734;2023-03-03T06:14:34;102147.91;;;0.48;90.81
75192;BME280;63771;52.580;9.734;2023-03-03T06:16:59;102149.94;;;0.50;90.88
75192;BME280;63771;52.580;9.734;2023-03-03T06:19:25;102153.16;;;0.49;90.94
75192;BME280;63771;52.580;9.734;2023-03-03T06:21:51;102159.06;;;0.50;90.78
75192;BME280;63771;52.580;9.734;2023-03-03T06:24:16;102152.69;;;0.46;90.71
75192;BME280;63771;52.580;9.734;2023-03-03T06:26:41;102147.66;;;0.46;91.01
75192;BME280;63771;52.580;9.734;2023-03-03T06:29:07;102151.34;;;0.48;90.88
75192;BME280;63771;52.580;9.734;2023-03-03T06:31:32;102151.53;;;0.50;91.04
75192;BME280;63771;52.580;9.734;2023-03-03T06:33:57;102152.44;;;0.50;90.94
75192;BME280;63771;52.580;9.734;2023-03-03T06:36:23;102151.75;;;0.51;90.78
75192;BME280;63771;52.580;9.734;2023-03-03T06:38:49;102150.66;;;0.44;90.72
75192;BME280;63771;52.580;9.734;2023-03-03T06:41:15;102165.03;;;0.45;90.96
75192;BME280;63771;52.580;9.734;2023-03-03T06:43:41;102162.75;;;0.41;90.87
75192;BME280;63771;52.580;9.734;2023-03-03T06:46:06;102169.16;;;0.44;91.07
75192;BME280;63771;52.580;9.734;2023-03-03T06:48:32;102168.25;;;0.38;90.92
75192;BME280;63771;52.580;9.734;2023-03-03T06:50:59;102171.19;;;0.41;91.01
75192;BME280;63771;52.580;9.734;2023-03-03T06:53:25;102168.25;;;0.38;91.16
75192;BME280;63771;52.580;9.734;2023-03-03T06:55:51;102171.22;;;0.36;91.07
75192;BME280;63771;52.580;9.734;2023-03-03T06:58:19;102174.19;;;0.39;91.27
75192;BME280;63771;52.580;9.734;2023-03-03T07:00:53;102173.28;;;0.38;91.27
75192;BME280;63771;52.580;9.734;2023-03-03T07:03:27;102168.91;;;0.48;90.29
75192;BME280;63771;52.580;9.734;2023-03-03T07:05:57;102161.38;;;0.48;90.03
75192;BME280;63771;52.580;9.734;2023-03-03T07:08:23;102156.09;;;0.47;90.19
75192;BME280;63771;52.580;9.734;2023-03-03T07:10:50;102174.84;;;0.49;90.58
75192;BME280;63771;52.580;9.734;2023-03-03T07:13:20;102169.81;;;0.49;90.62
75192;BME280;63771;52.580;9.734;2023-03-03T07:15:48;102177.78;;;0.46;90.54
75192;BME280;63771;52.580;9.734;2023-03-03T07:18:34;102171.19;;;0.41;91.06
75192;BME280;63771;52.580;9.734;2023-03-03T07:21:21;102179.66;;;0.47;91.57
75192;BME280;63771;52.580;9.734;2023-03-03T07:23:51;102177.38;;;0.43;91.17
75192;BME280;63771;52.580;9.734;2023-03-03T07:26:35;102180.06;;;0.50;91.18
75192;BME280;63771;52.580;9.734;2023-03-03T07:29:28;102186.91;;;0.51;90.37
75192;BME280;63771;52.580;9.734;2023-03-03T07:31:58;102177.78;;;0.46;90.12
75192;BME280;63771;52.580;9.734;2023-03-03T07:34:37;102180.31;;;0.46;90.08
75192;BME280;63771;52.580;9.734;2023-03-03T07:37:10;102184.19;;;0.44;90.06
75192;BME280;63771;52.580;9.734;2023-03-03T07:39:42;102189.00;;;0.43;90.18
75192;BME280;63771;52.580;9.734;2023-03-03T07:42:38;102188.53;;;0.45;90.02
75192;BME280;63771;52.580;9.734;2023-03-03T07:47:46;102194.94;;;0.43;90.41
75192;BME280;63771;52.580;9.734;2023-03-03T07:50:15;102200.84;;;0.49;90.48
75192;BME280;63771;52.580;9.734;2023-03-03T07:52:49;102206.97;;;0.51;90.22
75192;BME280;63771;52.580;9.734;2023-03-03T08:03:15;102204.63;;;0.70;88.64
75192;BME280;63771;52.580;9.734;2023-03-03T08:05:43;102211.47;;;0.71;89.20
75192;BME280;63771;52.580;9.734;2023-03-03T08:08:13;102217.19;;;0.70;89.35
75192;BME280;63771;52.580;9.734;2023-03-03T08:10:47;102211.03;;;0.68;89.54
75192;BME280;63771;52.580;9.734;2023-03-03T08:13:27;102214.22;;;0.67;89.99
75192;BME280;63771;52.580;9.734;2023-03-03T08:16:00;102211.72;;;0.67;90.14
75192;BME280;63771;52.580;9.734;2023-03-03T08:18:37;102222.00;;;0.68;90.09
75192;BME280;63771;52.580;9.734;2023-03-03T08:21:25;102225.44;;;0.69;89.75
75192;BME280;63771;52.580;9.734;2023-03-03T08:23:51;102227.44;;;0.71;89.95
75192;BME280;63771;52.580;9.734;2023-03-03T08:26:21;102227.66;;;0.78;89.68
75192;BME280;63771;52.580;9.734;2023-03-03T08:28:47;102225.13;;;0.84;89.51
75192;BME280;63771;52.580;9.734;2023-03-03T08:31:13;102224.84;;;0.88;89.70
75192;BME280;63771;52.580;9.734;2023-03-03T08:33:39;102212.50;;;0.95;89.66
75192;BME280;63771;52.580;9.734;2023-03-03T08:36:05;102214.97;;;1.01;89.11
75192;BME280;63771;52.580;9.734;2023-03-03T08:38:31;102218.41;;;1.01;88.76
75192;BME280;63771;52.580;9.734;2023-03-03T08:40:56;102214.28;;;1.02;88.85
75192;BME280;63771;52.580;9.734;2023-03-03T08:43:22;102203.13;;;1.00;89.13
75192;BME280;63771;52.580;9.734;2023-03-03T08:45:50;102219.03;;;1.12;88.93
75192;BME280;63771;52.580;9.734;2023-03-03T08:48:16;102218.78;;;1.16;88.25
75192;BME280;63771;52.580;9.734;2023-03-03T08:50:42;102223.53;;;1.20;87.98
75192;BME280;63771;52.580;9.734;2023-03-03T08:53:08;102210.28;;;1.21;87.80
75192;BME280;63771;52.580;9.734;2023-03-03T08:55:34;102215.31;;;1.21;87.97
75192;BME280;63771;52.580;9.734;2023-03-03T08:58:00;102217.38;;;1.18;88.04
75192;BME280;63771;52.580;9.734;2023-03-03T09:00:25;102214.88;;;1.18;88.37
75192;BME280;63771;52.580;9.734;2023-03-03T09:02:52;102215.13;;;1.14;87.73
75192;BME280;63771;52.580;9.734;2023-03-03T09:05:18;102216.25;;;1.16;88.40
75192;BME280;63771;52.580;9.734;2023-03-03T09:07:45;102217.63;;;1.14;88.15
75192;BME280;63771;52.580;9.734;2023-03-03T09:10:14;102211.25;;;1.16;87.90
75192;BME280;63771;52.580;9.734;2023-03-03T09:12:43;102218.97;;;1.17;87.43
75192;BME280;63771;52.580;9.734;2023-03-03T09:15:25;102221.25;;;1.21;88.06
75192;BME280;63771;52.580;9.734;2023-03-03T09:17:52;102224.91;;;1.18;87.47
75192;BME280;63771;52.580;9.734;2023-03-03T09:20:26;102228.53;;;1.20;87.58
75192;BME280;63771;52.580;9.734;2023-03-03T09:22:52;102218.75;;;1.21;87.54
75192;BME280;63771;52.580;9.734;2023-03-03T09:25:32;102218.94;;;1.23;87.57
75192;BME280;63771;52.580;9.734;2023-03-03T09:27:59;102221.00;;;1.25;87.55
75192;BME280;63771;52.580;9.734;2023-03-03T09:30:34;102224.47;;;1.20;87.45
75192;BME280;63771;52.580;9.734;2023-03-03T09:33:01;102219.88;;;1.18;87.31
75192;BME280;63771;52.580;9.734;2023-03-03T09:35:37;102221.38;;;1.34;86.44
75192;BME280;63771;52.580;9.734;2023-03-03T09:38:28;102221.13;;;1.38;86.74
75192;BME280;63771;52.580;9.734;2023-03-03T09:44:02;102222.25;;;1.40;87.20
75192;BME280;63771;52.580;9.734;2023-03-03T09:46:42;102218.88;;;1.34;87.08
75192;BME280;63771;52.580;9.734;2023-03-03T09:52:32;102227.59;;;1.30;87.08
75192;BME280;63771;52.580;9.734;2023-03-03T10:00:52;102226.16;;;1.38;87.43
75192;BME280;63771;52.580;9.734;2023-03-03T10:06:27;102228.75;;;1.56;86.63
75192;BME280;63771;52.580;9.734;2023-03-03T10:22:53;102235.06;;;1.95;85.73
75192;BME280;63771;52.580;9.734;2023-03-03T10:29:01;102239.00;;;2.12;84.65
75192;BME280;63771;52.580;9.734;2023-03-03T10:34:33;102238.03;;;2.17;83.69
75192;BME280;63771;52.580;9.734;2023-03-03T10:37:23;102240.69;;;2.05;84.00
75192;BME280;63771;52.580;9.734;2023-03-03T10:40:20;102238.41;;;2.01;84.03
75192;BME280;63771;52.580;9.734;2023-03-03T10:46:12;102238.31;;;2.13;84.15
75192;BME280;63771;52.580;9.734;2023-03-03T10:49:00;102244.38;;;2.26;84.09
75192;BME280;63771;52.580;9.734;2023-03-03T10:57:25;102245.47;;;2.28;83.69
75192;BME280;63771;52.580;9.734;2023-03-03T11:00:07;102248.56;;;2.20;83.80
75192;BME280;63771;52.580;9.734;2023-03-03T11:05:13;102248.25;;;2.24;84.24
75192;BME280;63771;52.580;9.734;2023-03-03T11:07:49;102239.72;;;2.29;84.28
75192;BME280;63771;52.580;9.734;2023-03-03T11:10:27;102242.38;;;2.18;84.17
75192;BME280;63771;52.580;9.734;2023-03-03T11:13:07;102232.94;;;2.22;84.61
75192;BME280;63771;52.580;9.734;2023-03-03T11:15:45;102233.06;;;2.35;84.02
75192;BME280;63771;52.580;9.734;2023-03-03T11:18:25;102234.22;;;2.50;83.99
75192;BME280;63771;52.580;9.734;2023-03-03T11:21:01;102228.09;;;2.48;82.85
75192;BME280;63771;52.580;9.734;2023-03-03T11:23:52;102211.56;;;2.50;83.01
75192;BME280;63771;52.580;9.734;2023-03-03T11:35:28;102212.28;;;2.49;83.54
75192;BME280;63771;52.580;9.734;2023-03-03T11:43:44;102217.25;;;2.54;82.54
75192;BME280;63771;52.580;9.734;2023-03-03T11:46:18;102204.22;;;2.70;82.76
75192;BME280;63771;52.580;9.734;2023-03-03T11:48:52;102204.06;;;2.81;82.49
75192;BME280;63771;52.580;9.734;2023-03-03T11:51:31;102207.06;;;2.97;82.23
75192;BME280;63771;52.580;9.734;2023-03-03T11:54:03;102197.31;;;3.05;81.91
75192;BME280;63771;52.580;9.734;2023-03-03T11:56:40;102198.13;;;2.99;80.98
75192;BME280;63771;52.580;9.734;2023-03-03T12:04:26;102190.09;;;2.65;82.83
75192;BME280;63771;52.580;9.734;2023-03-03T12:07:15;102184.84;;;2.63;82.86
75192;BME280;63771;52.580;9.734;2023-03-03T12:12:44;102180.44;;;2.68;82.34
75192;BME280;63771;52.580;9.734;2023-03-03T12:19:08;102173.22;;;2.76;81.22
75192;BME280;63771;52.580;9.734;2023-03-03T12:21:49;102167.69;;;2.79;82.17
75192;BME280;63771;52.580;9.734;2023-03-03T12:24:42;102175.16;;;2.84;81.98
75192;BME280;63771;52.580;9.734;2023-03-03T12:27:34;102177.56;;;2.77;81.53
75192;BME280;63771;52.580;9.734;2023-03-03T12:30:47;102173.84;;;2.81;81.82
75192;BME280;63771;52.580;9.734;2023-03-03T12:33:22;102174.16;;;2.77;82.56
75192;BME280;63771;52.580;9.734;2023-03-03T12:36:03;102163.91;;;2.88;82.47
75192;BME280;63771;52.580;9.734;2023-03-03T12:56:03;102149.72;;;3.01;81.41
75192;BME280;63771;52.580;9.734;2023-03-03T12:58:39;102139.53;;;3.07;80.88
75192;BME280;63771;52.580;9.734;2023-03-03T13:01:40;102135.09;;;2.99;81.01
75192;BME280;63771;52.580;9.734;2023-03-03T13:04:35;102146.56;;;2.97;82.38
75192;BME280;63771;52.580;9.734;2023-03-03T13:07:25;102138.16;;;3.09;81.72
75192;BME280;63771;52.580;9.734;2023-03-03T13:10:01;102138.00;;;3.02;81.51
75192;BME280;63771;52.580;9.734;2023-03-03T13:12:41;102141.78;;;3.11;81.50
75192;BME280;63771;52.580;9.734;2023-03-03T13:26:03;102118.16;;;2.98;81.79
75192;BME280;63771;52.580;9.734;2023-03-03T13:28:35;102121.69;;;3.05;81.68
75192;BME280;63771;52.580;9.734;2023-03-03T13:31:12;102124.94;;;3.04;81.85
75192;BME280;63771;52.580;9.734;2023-03-03T13:33:39;102117.38;;;3.04;81.78
75192;BME280;63771;52.580;9.734;2023-03-03T13:36:13;102117.16;;;3.03;82.35
75192;BME280;63771;52.580;9.734;2023-03-03T13:38:45;102118.47;;;3.06;82.32
75192;BME280;63771;52.580;9.734;2023-03-03T13:44:23;102117.16;;;3.03;81.71
75192;BME280;63771;52.580;9.734;2023-03-03T13:47:02;102112.94;;;3.09;82.17
75192;BME280;63771;52.580;9.734;2023-03-03T13:49:53;102100.53;;;3.10;81.78
75192;BME280;63771;52.580;9.734;2023-03-03T13:52:27;102102.47;;;3.19;81.73
75192;BME280;63771;52.580;9.734;2023-03-03T14:00:21;102094.00;;;3.31;81.19
75192;BME280;63771;52.580;9.734;2023-03-03T14:05:30;102100.03;;;3.26;81.65
75192;BME280;63771;52.580;9.734;2023-03-03T14:10:33;102100.25;;;3.14;81.17
75192;BME280;63771;52.580;9.734;2023-03-03T14:13:13;102090.72;;;3.06;81.65
75192;BME280;63771;52.580;9.734;2023-03-03T14:15:57;102089.50;;;2.97;81.99
75192;BME280;63771;52.580;9.734;2023-03-03T14:18:33;102088.97;;;2.87;82.40
75192;BME280;63771;52.580;9.734;2023-03-03T14:21:08;102080.03;;;2.89;82.99
75192;BME280;63771;52.580;9.734;2023-03-03T14:26:24;102076.41;;;3.00;82.53
75192;BME280;63771;52.580;9.734;2023-03-03T14:28:50;102081.25;;;2.98;82.22
75192;BME280;63771;52.580;9.734;2023-03-03T14:31:41;102066.81;;;2.97;82.59
75192;BME280;63771;52.580;9.734;2023-03-03T14:36:57;102067.25;;;3.00;82.66
75192;BME280;63771;52.580;9.734;2023-03-03T14:39:38;102063.72;;;3.05;82.60
75192;BME280;63771;52.580;9.734;2023-03-03T14:42:11;102055.63;;;3.08;82.55
75192;BME280;63771;52.580;9.734;2023-03-03T14:49:36;102048.69;;;3.38;81.58
75192;BME280;63771;52.580;9.734;2023-03-03T14:52:18;102044.44;;;3.44;81.89
75192;BME280;63771;52.580;9.734;2023-03-03T14:54:46;102042.94;;;3.52;81.11
75192;BME280;63771;52.580;9.734;2023-03-03T14:57:16;102038.63;;;3.51;81.43
75192;BME280;63771;52.580;9.734;2023-03-03T15:03:04;102036.78;;;3.37;81.71
75192;BME280;63771;52.580;9.734;2023-03-03T15:05:59;102038.22;;;3.35;82.05
75192;BME280;63771;52.580;9.734;2023-03-03T15:08:36;102030.03;;;3.30;81.96
75192;BME280;63771;52.580;9.734;2023-03-03T15:11:25;102030.16;;;3.25;81.99
75192;BME280;63771;52.580;9.734;2023-03-03T15:13:51;102028.94;;;3.16;82.19
75192;BME280;63771;52.580;9.734;2023-03-03T15:16:21;102027.63;;;3.12;82.58
75192;BME280;63771;52.580;9.734;2023-03-03T15:21:44;102018.25;;;3.24;83.11
75192;BME280;63771;52.580;9.734;2023-03-03T15:24:22;102018.53;;;3.32;83.09
75192;BME280;63771;52.580;9.734;2023-03-03T15:27:02;102009.47;;;3.40;82.57
75192;BME280;63771;52.580;9.734;2023-03-03T15:29:40;102007.03;;;3.47;82.43
75192;BME280;63771;52.580;9.734;2023-03-03T15:32:26;101996.53;;;3.44;81.54
75192;BME280;63771;52.580;9.734;2023-03-03T15:38:16;101996.75;;;3.46;82.22
75192;BME280;63771;52.580;9.734;2023-03-03T15:40:48;101988.56;;;3.41;82.32
75192;BME280;63771;52.580;9.734;2023-03-03T15:43:27;101991.19;;;3.48;82.39
75192;BME280;63771;52.580;9.734;2023-03-03T15:46:14;101984.72;;;3.50;82.24
75192;BME280;63771;52.580;9.734;2023-03-03T15:49:12;101980.06;;;3.53;81.98
75192;BME280;63771;52.580;9.734;2023-03-03T15:54:58;101983.47;;;3.66;81.97
75192;BME280;63771;52.580;9.734;2023-03-03T16:00:24;101970.53;;;3.71;81.42
75192;BME280;63771;52.580;9.734;2023-03-03T16:03:12;101978.31;;;3.72;81.48
75192;BME280;63771;52.580;9.734;2023-03-03T16:05:52;101973.75;;;3.70;81.28
75192;BME280;63771;52.580;9.734;2023-03-03T16:08:28;101974.66;;;3.70;81.47